Time;durP1;ratioP1;P1;durP2;ratioP2;P2;SDS_P1;SDS_P2;PMS_P1;PMS_P2;Temp;Humidity;BMP_temperature;BMP_pressure;BME280_temperature;BME280_humidity;BME280_pressure;Samples;Min_cycle;Max_cycle;Signal;HPM_P1;HPM_P2
2022/02/10 00:14:09;;;;;;;3.67;1.60;;;17.60;68.30;;;;;;10413878;28;20405;-56
2022/02/10 00:34:45;;;;;;;2.72;1.67;;;17.60;68.10;;;;;;10437202;28;20053;-55
2022/02/10 00:40:06;;;;;;;3.28;1.88;;;17.60;68.00;;;;;;10428630;28;20409;-56
2022/02/10 00:45:07;;;;;;;2.95;1.65;;;17.60;67.90;;;;;;10412887;28;20496;-56
2022/02/10 00:50:08;;;;;;;3.10;1.90;;;17.60;67.90;;;;;;10412499;28;20076;-56
2022/02/10 00:55:10;;;;;;;2.78;1.90;;;17.60;67.70;;;;;;10428878;28;20782;-56
2022/02/10 01:10:53;;;;;;;3.00;1.67;;;17.60;67.50;;;;;;10428669;28;20041;-56
2022/02/10 01:31:52;;;;;;;3.70;1.87;;;17.60;67.40;;;;;;10420920;28;20081;-55
2022/02/10 01:36:52;;;;;;;2.65;1.80;;;17.70;67.40;;;;;;10447432;28;20443;-56
2022/02/10 01:42:33;;;;;;;2.92;1.63;;;17.70;67.20;;;;;;10401428;28;20029;-55
2022/02/10 01:58:06;;;;;;;2.30;1.70;;;17.60;67.10;;;;;;10419878;28;20057;-56
2022/02/10 02:03:20;;;;;;;2.17;1.67;;;17.60;67.00;;;;;;10419730;28;20497;-55
2022/02/10 02:08:27;;;;;;;2.45;1.58;;;17.60;67.10;;;;;;10419675;28;20057;-56
2022/02/10 02:13:28;;;;;;;2.17;1.65;;;17.60;66.90;;;;;;10418878;28;20092;-56
2022/02/10 02:18:29;;;;;;;2.55;1.90;;;17.70;66.90;;;;;;10418374;28;20029;-56
2022/02/10 02:23:29;;;;;;;2.28;1.40;;;17.60;66.90;;;;;;10417805;28;20104;-56
2022/02/10 02:28:36;;;;;;;3.17;1.80;;;17.60;66.80;;;;;;10418473;28;20124;-56
2022/02/10 03:05:26;;;;;;;3.20;1.80;;;17.60;66.50;;;;;;10417808;28;20065;-56
2022/02/10 05:37:50;;;;;;;2.65;1.83;;;17.50;66.00;;;;;;10431603;28;20354;-56
2022/02/10 05:48:12;;;;;;;4.45;2.15;;;17.50;66.10;;;;;;10410287;28;20405;-56
2022/02/10 05:53:34;;;;;;;6.35;2.13;;;17.50;66.50;;;;;;10409845;28;20168;-55
2022/02/10 06:52:05;;;;;;;15.38;3.40;;;17.50;68.50;;;;;;10413207;28;20041;-55
2022/02/10 06:57:37;;;;;;;15.95;3.90;;;17.50;68.70;;;;;;10415445;28;20053;-54
2022/02/10 07:07:57;;;;;;;11.25;3.10;;;17.50;68.40;;;;;;10414977;28;20441;-55
2022/02/10 07:50:07;;;;;;;6.53;3.45;;;17.50;68.10;;;;;;10411111;28;20029;-55
2022/02/10 09:09:06;;;;;;;3.95;2.13;;;17.50;66.80;;;;;;10411792;28;20025;-55
2022/02/10 09:56:35;;;;;;;3.47;1.27;;;17.60;66.70;;;;;;10419820;28;20041;-56
2022/02/10 10:01:44;;;;;;;3.03;1.48;;;17.50;66.60;;;;;;10419577;28;20449;-56
2022/02/10 10:55:31;;;;;;;2.20;1.13;;;17.60;66.40;;;;;;10416633;28;20398;-55
2022/02/10 11:43:45;;;;;;;2.92;1.08;;;17.40;67.30;;;;;;10438061;28;20486;-56
2022/02/10 12:32:57;;;;;;;1.52;0.77;;;17.30;67.20;;;;;;10414092;28;20062;-55
2022/02/10 12:37:56;;;;;;;2.67;0.90;;;17.40;67.20;;;;;;10454549;28;20771;-56
2022/02/10 14:13:46;;;;;;;1.27;0.57;;;17.50;66.50;;;;;;10410732;28;20042;-56
2022/02/10 14:18:54;;;;;;;4.63;0.70;;;17.50;66.40;;;;;;10415712;28;20014;-57
2022/02/10 14:28:55;;;;;;;1.20;0.50;;;17.60;66.20;;;;;;10418453;28;20053;-56
2022/02/10 14:33:57;;;;;;;0.95;0.73;;;17.60;66.20;;;;;;10433608;28;20037;-56
2022/02/10 14:39:11;;;;;;;0.85;0.60;;;17.50;66.20;;;;;;10459208;28;20469;-54
2022/02/10 15:29:14;;;;;;;1.40;0.60;;;17.50;66.10;;;;;;10416724;28;20052;-56
2022/02/10 16:19:28;;;;;;;1.70;0.52;;;17.50;66.00;;;;;;10409613;28;20037;-55
2022/02/10 16:24:35;;;;;;;1.38;0.60;;;17.60;65.60;;;;;;10412518;28;20152;-56
2022/02/10 16:29:37;;;;;;;1.02;0.60;;;17.50;65.60;;;;;;10412800;28;20049;-55
2022/02/10 16:34:40;;;;;;;2.03;0.55;;;17.60;65.50;;;;;;10431028;28;20037;-56
2022/02/10 16:39:42;;;;;;;1.55;0.60;;;17.60;65.30;;;;;;10446859;28;20273;-56
2022/02/10 16:44:46;;;;;;;1.38;0.55;;;17.60;65.20;;;;;;10407746;28;20041;-56
2022/02/10 16:49:50;;;;;;;4.85;0.60;;;17.60;65.00;;;;;;10401186;28;20029;-56
2022/02/10 16:55:02;;;;;;;4.75;0.90;;;17.60;65.00;;;;;;10412533;28;20055;-57
2022/02/10 17:00:34;;;;;;;37.25;26.08;;;17.60;65.40;;;;;;10410791;28;20389;-57
2022/02/10 17:05:48;;;;;;;28.05;18.17;;;17.70;65.00;;;;;;10410260;28;20037;-56
2022/02/10 17:14:08;;;;;;;25.35;14.85;;;17.70;65.80;;;;;;10411483;28;20022;-56
2022/02/10 17:27:12;;;;;;;22.98;13.70;;;17.90;66.20;;;;;;10413284;28;20033;-57
2022/02/10 17:32:24;;;;;;;25.30;13.23;;;17.90;66.00;;;;;;10409598;28;20041;-57
2022/02/10 17:53:05;;;;;;;20.80;11.45;;;17.80;67.50;;;;;;10414091;28;20041;-57
2022/02/10 17:58:06;;;;;;;22.55;11.32;;;17.70;66.60;;;;;;10418196;28;20045;-57
2022/02/10 18:03:07;;;;;;;20.73;10.77;;;17.70;67.70;;;;;;10419972;28;20040;-57
2022/02/10 18:08:12;;;;;;;31.40;10.85;;;17.60;67.20;;;;;;10401670;28;20021;-56
2022/02/10 18:13:27;;;;;;;21.83;10.32;;;17.60;67.20;;;;;;10419203;28;20021;-56
2022/02/10 18:18:38;;;;;;;21.67;9.40;;;17.50;67.10;;;;;;10417080;28;20397;-58
2022/02/10 18:29:04;;;;;;;19.42;8.82;;;17.40;67.00;;;;;;10386411;28;20049;-57
2022/02/10 19:10:54;;;;;;;15.65;7.22;;;17.70;65.60;;;;;;10429782;28;20045;-57
2022/02/10 19:15:55;;;;;;;12.15;6.40;;;17.60;65.60;;;;;;10415871;28;20029;-57
2022/02/10 19:20:55;;;;;;;12.50;5.70;;;17.70;65.60;;;;;;10415110;28;20021;-56
2022/02/10 19:25:56;;;;;;;9.93;6.00;;;17.70;65.60;;;;;;10415382;28;20462;-57
2022/02/10 19:30:59;;;;;;;11.55;5.50;;;17.70;65.60;;;;;;10414759;28;20041;-57
2022/02/10 19:36:01;;;;;;;13.35;5.82;;;17.60;65.70;;;;;;10414877;28;20034;-57
2022/02/10 19:41:01;;;;;;;8.48;4.95;;;17.70;67.40;;;;;;10414156;28;20085;-56
2022/02/10 19:46:02;;;;;;;11.75;5.35;;;17.60;67.00;;;;;;10424796;28;20053;-57
2022/02/10 19:51:03;;;;;;;9.77;5.45;;;17.70;67.50;;;;;;10402392;28;20037;-57
2022/02/10 19:56:04;;;;;;;8.10;4.53;;;17.60;68.00;;;;;;10405649;28;20037;-57
2022/02/10 20:01:06;;;;;;;9.18;4.53;;;17.70;68.80;;;;;;10411993;28;20045;-58
2022/02/10 20:06:07;;;;;;;12.05;5.55;;;17.70;68.50;;;;;;10412477;28;20513;-56
2022/02/10 20:11:08;;;;;;;13.57;4.93;;;17.80;68.30;;;;;;10413097;28;20362;-57
2022/02/10 20:16:11;;;;;;;6.88;4.20;;;17.60;71.40;;;;;;10413073;28;20033;-57
2022/02/10 20:21:12;;;;;;;9.35;4.13;;;17.60;68.20;;;;;;10413514;28;20030;-56
2022/02/10 20:26:14;;;;;;;8.75;4.40;;;17.50;68.90;;;;;;10414534;28;20429;-58
2022/02/10 20:31:15;;;;;;;8.93;3.92;;;17.60;72.70;;;;;;10412749;28;20049;-58
2022/02/10 20:36:16;;;;;;;11.13;4.88;;;17.50;72.60;;;;;;10426910;28;20394;-60
2022/02/10 20:41:18;;;;;;;9.77;4.35;;;17.50;72.20;;;;;;10427089;28;20813;-57
2022/02/10 20:46:19;;;;;;;9.00;3.90;;;17.40;71.70;;;;;;10411752;28;20055;-57
2022/02/10 20:51:21;;;;;;;8.82;4.07;;;17.40;71.20;;;;;;10412777;28;20500;-58
2022/02/10 20:56:22;;;;;;;6.47;3.65;;;17.50;71.60;;;;;;10410227;28;20022;-57
2022/02/10 21:01:23;;;;;;;7.43;3.58;;;17.50;72.50;;;;;;10409968;28;20486;-57
2022/02/10 21:11:29;;;;;;;11.15;3.75;;;17.90;70.90;;;;;;10411543;28;20038;-57
2022/02/10 21:16:30;;;;;;;6.85;3.47;;;18.00;70.70;;;;;;10411953;28;20113;-57
2022/02/10 21:21:30;;;;;;;10.00;3.53;;;17.60;70.60;;;;;;10428620;28;20084;-57
2022/02/10 21:26:38;;;;;;;7.40;3.30;;;17.50;70.90;;;;;;10412569;28;20032;-58
2022/02/10 21:31:44;;;;;;;6.55;3.47;;;17.40;70.40;;;;;;10419818;28;20045;-57
2022/02/10 21:37:09;;;;;;;6.47;2.95;;;17.70;70.50;;;;;;10459938;28;20500;-57
2022/02/10 21:47:37;;;;;;;8.45;2.83;;;17.70;70.20;;;;;;10419830;28;20116;-58
2022/02/10 22:23:51;;;;;;;6.80;2.60;;;17.50;70.50;;;;;;10419750;28;20029;-57
2022/02/10 22:39:37;;;;;;;5.57;2.45;;;17.80;69.90;;;;;;10460443;28;20033;-56
2022/02/10 22:44:39;;;;;;;3.78;1.80;;;17.70;69.80;;;;;;10429709;28;20029;-57
2022/02/10 22:49:40;;;;;;;5.32;2.60;;;17.80;70.60;;;;;;10418510;28;20079;-57
2022/02/10 22:54:40;;;;;;;5.45;2.42;;;17.70;73.00;;;;;;10418464;28;20079;-57
2022/02/10 22:59:41;;;;;;;4.20;2.20;;;17.70;73.70;;;;;;10416749;28;20040;-57
2022/02/10 23:04:42;;;;;;;4.30;1.83;;;17.80;73.10;;;;;;10432994;28;20127;-57
2022/02/10 23:10:09;;;;;;;3.95;2.28;;;17.80;73.80;;;;;;10416438;28;20064;-57
2022/02/10 23:15:10;;;;;;;4.00;1.90;;;17.70;72.10;;;;;;10429492;28;20035;-56
2022/02/10 23:20:12;;;;;;;3.28;1.65;;;17.70;72.00;;;;;;10406542;28;20056;-57
2022/02/10 23:25:13;;;;;;;4.07;2.08;;;17.80;72.40;;;;;;10376328;28;20034;-57
2022/02/10 23:30:13;;;;;;;4.72;2.00;;;17.80;70.90;;;;;;10400773;28;20049;-55
2022/02/10 23:35:48;;;;;;;4.38;2.15;;;17.70;70.60;;;;;;10459237;28;20041;-57
2022/02/10 23:40:46;;;;;;;3.88;2.28;;;17.80;70.10;;;;;;10427481;28;20054;-57
2022/02/10 23:45:46;;;;;;;6.10;2.15;;;17.80;69.90;;;;;;10400108;28;20018;-57
2022/02/10 23:50:47;;;;;;;4.72;1.67;;;17.70;69.90;;;;;;10414025;28;20061;-57
2022/02/10 23:55:49;;;;;;;4.13;1.70;;;17.70;69.80;;;;;;10373680;28;20030;-57
